< < Back
Terminal Aerodrome Forecast


Current Version              Previous Versions:   1  2  3  4  5  6  7  8  9  

Terminal Aerodrome Forecast

669
FTUS44 KBMX 251700
TAFBHM
TAF
KBHM 251738Z 2518/2618 26006KT P6SM FEW050 BKN250
     FM260100 00000KT P6SM SKC
     FM261500 29005KT P6SM FEW250=

Latest METAR

144
SAUS70 KWBC 261300 RRE
MTRBHM
METAR KBHM 261253Z 00000KT 10SM FEW250 23/17 A3009 RMK AO2 SLP182
T02330167


USA.gov is the U.S. government's official web portal to all federal, state and local government web resources and services.